Roslyn, South Dakota
Current Conditions -  °F | °C
As of 10:53 AM on Saturday 22 Nov 2014 (Local Time) from KATY Reporting Station
Haze Haze  
Wind Chill: -9°   Ceiling: Unl
Heat Index: -3°   Visibility: 5mi
Dew Point: -4°   Wind: 14mph
Humidity: 89%   Direction: 160°SSE
Pressure: 29.62"   Gusts: NA
Location:  45.5°N, 97.49°W
Report Text: KATY 221653Z AUTO 16012KT 5SM BR CLR M03/M04 A2962 RMK AO2 SLP048 T10281044
Loading
Personal Weather Stations






























Interactive Weather Map New forecast layout! Learn more

10-Day Weather Forecast

Advertisements
Track Severe Weather on mobile